Time;durP1;ratioP1;P1;durP2;ratioP2;P2;SDS_P1;SDS_P2;PMS_P1;PMS_P2;Temp;Humidity;BMP_temperature;BMP_pressure;BME280_temperature;BME280_humidity;BME280_pressure;Samples;Min_cycle;Max_cycle;Signal;HPM_P1;HPM_P2
2022/11/23 00:00:41;;;;;;;2.60;1.40;;;8.80;99.90;;;;;;7386309;19;20143;-73
2022/11/23 00:03:15;;;;;;;8.80;1.30;;;8.90;99.90;;;;;;7386642;19;20145;-74
2022/11/23 00:05:41;;;;;;;3.00;1.40;;;8.80;99.90;;;;;;7385956;19;20547;-76
2022/11/23 00:08:06;;;;;;;3.70;1.17;;;8.80;99.90;;;;;;7385807;19;20154;-74
2022/11/23 00:10:32;;;;;;;2.77;1.27;;;8.90;99.90;;;;;;7388105;19;20556;-74
2022/11/23 00:12:58;;;;;;;4.20;1.77;;;8.90;99.90;;;;;;7384189;19;20206;-74
2022/11/23 00:15:24;;;;;;;5.10;1.30;;;8.90;99.90;;;;;;7385866;19;20138;-73
2022/11/23 00:17:49;;;;;;;3.20;1.33;;;8.80;99.90;;;;;;7386826;19;20492;-75
2022/11/23 00:20:15;;;;;;;3.97;1.33;;;8.90;99.90;;;;;;7384909;19;20143;-74
2022/11/23 00:22:41;;;;;;;4.07;1.10;;;8.80;99.90;;;;;;7384442;19;20183;-75
2022/11/23 00:25:07;;;;;;;3.47;1.40;;;8.80;99.90;;;;;;7386750;19;20139;-74
2022/11/23 00:27:33;;;;;;;5.03;1.60;;;8.80;99.90;;;;;;7393748;19;20625;-74
2022/11/23 00:29:59;;;;;;;2.93;1.37;;;8.80;99.90;;;;;;7392708;19;20163;-73
2022/11/23 00:32:26;;;;;;;2.53;1.53;;;8.70;99.90;;;;;;7391487;19;20138;-73
2022/11/23 00:34:52;;;;;;;3.93;1.50;;;8.70;99.90;;;;;;7392971;19;20151;-74
2022/11/23 00:37:17;;;;;;;2.40;1.50;;;8.80;99.90;;;;;;7394655;19;20224;-74
2022/11/23 00:39:43;;;;;;;2.73;1.37;;;8.80;99.90;;;;;;7392748;19;20177;-74
2022/11/23 00:42:09;;;;;;;4.13;1.47;;;8.90;99.90;;;;;;7396494;19;20454;-73
2022/11/23 00:44:34;;;;;;;4.87;1.60;;;8.80;99.90;;;;;;7395758;19;20150;-73
2022/11/23 00:47:00;;;;;;;3.90;1.20;;;8.80;99.90;;;;;;7395493;19;20138;-74
2022/11/23 00:49:26;;;;;;;4.13;1.50;;;8.90;99.90;;;;;;7394157;19;20138;-74
2022/11/23 00:51:51;;;;;;;2.13;1.50;;;8.90;99.90;;;;;;7391275;19;20592;-74
2022/11/23 00:54:17;;;;;;;3.30;1.50;;;8.80;99.90;;;;;;7391322;19;20635;-73
2022/11/23 00:56:43;;;;;;;2.67;1.27;;;8.70;99.90;;;;;;7392348;19;20163;-75
2022/11/23 00:59:12;;;;;;;3.90;1.87;;;8.80;99.90;;;;;;7391589;19;20138;-74
2022/11/23 01:01:37;;;;;;;3.77;1.40;;;8.80;99.90;;;;;;7392679;19;20247;-74
2022/11/23 01:04:06;;;;;;;3.13;1.33;;;8.80;99.90;;;;;;7391755;19;20139;-74
2022/11/23 01:06:34;;;;;;;3.40;1.47;;;8.80;99.90;;;;;;7393317;19;20149;-73
2022/11/23 01:09:12;;;;;;;3.77;1.50;;;8.70;99.90;;;;;;7393608;19;20513;-74
2022/11/23 01:11:38;;;;;;;2.90;1.30;;;8.80;99.90;;;;;;7387857;19;20178;-73
2022/11/23 01:14:04;;;;;;;3.80;1.60;;;8.70;99.90;;;;;;7392637;19;20206;-74
2022/11/23 01:16:33;;;;;;;3.43;1.27;;;8.70;99.90;;;;;;7392445;19;20134;-73
2022/11/23 01:19:05;;;;;;;2.80;1.03;;;8.70;99.90;;;;;;7393495;19;20167;-74
2022/11/23 01:21:34;;;;;;;3.17;1.20;;;8.80;99.90;;;;;;7393257;19;20145;-72
2022/11/23 01:24:05;;;;;;;4.00;1.47;;;8.80;99.90;;;;;;7393012;19;20130;-74
2022/11/23 01:26:31;;;;;;;3.50;1.20;;;8.80;99.90;;;;;;7392807;19;20494;-74
2022/11/23 01:28:56;;;;;;;2.73;1.10;;;8.80;99.90;;;;;;7387463;19;20142;-74
2022/11/23 01:31:24;;;;;;;4.03;1.50;;;8.80;99.90;;;;;;7391298;19;20505;-75
2022/11/23 01:33:58;;;;;;;3.17;1.50;;;8.80;99.90;;;;;;7390445;19;20247;-75
2022/11/23 01:36:27;;;;;;;4.00;1.33;;;8.70;99.90;;;;;;7388214;19;20149;-73
2022/11/23 01:38:53;;;;;;;1.67;1.20;;;8.70;99.90;;;;;;7390925;19;20135;-73
2022/11/23 01:41:25;;;;;;;2.47;1.17;;;8.70;99.90;;;;;;7393283;19;20150;-74
2022/11/23 01:43:52;;;;;;;4.30;1.60;;;8.70;99.90;;;;;;7389990;19;20138;-75
2022/11/23 01:46:18;;;;;;;3.97;1.37;;;8.70;99.90;;;;;;7391795;19;20161;-74
2022/11/23 01:48:46;;;;;;;1.47;0.93;;;8.70;99.90;;;;;;7393481;19;20142;-74
2022/11/23 01:51:27;;;;;;;3.00;1.40;;;8.60;99.90;;;;;;7392486;19;20798;-74
2022/11/23 01:53:56;;;;;;;3.50;1.40;;;8.70;99.90;;;;;;7392555;19;20601;-72
2022/11/23 01:56:29;;;;;;;4.77;1.60;;;8.70;99.90;;;;;;7393366;19;20144;-74
2022/11/23 01:58:58;;;;;;;6.80;1.50;;;8.70;99.90;;;;;;7392550;19;20146;-74
2022/11/23 02:01:24;;;;;;;1.80;0.80;;;8.70;99.90;;;;;;7393989;19;20712;-74
2022/11/23 02:03:52;;;;;;;3.17;1.37;;;8.70;99.90;;;;;;7390153;19;20477;-73
2022/11/23 02:06:19;;;;;;;3.20;0.97;;;8.70;99.90;;;;;;7390401;19;20146;-74
2022/11/23 02:08:47;;;;;;;1.67;1.10;;;8.70;99.90;;;;;;7392547;19;20155;-72
2022/11/23 02:11:14;;;;;;;2.43;1.10;;;8.70;99.90;;;;;;7392028;19;20138;-74
2022/11/23 02:13:43;;;;;;;4.00;1.40;;;8.70;99.90;;;;;;7393916;19;20144;-73
2022/11/23 02:16:09;;;;;;;5.40;1.10;;;8.70;99.90;;;;;;7395348;19;20609;-74
2022/11/23 02:18:37;;;;;;;1.60;1.00;;;8.70;99.90;;;;;;7393229;19;20154;-74
2022/11/23 02:21:04;;;;;;;2.20;0.93;;;8.70;99.90;;;;;;7392562;19;20240;-74
2022/11/23 02:24:16;;;;;;;2.80;1.00;;;8.40;99.90;;;;;;7390307;19;20143;-75
2022/11/23 02:26:43;;;;;;;2.57;1.23;;;8.40;99.90;;;;;;7389986;19;20265;-73
2022/11/23 02:29:18;;;;;;;3.37;1.30;;;8.50;99.90;;;;;;7389284;19;20139;-74
2022/11/23 02:31:44;;;;;;;2.73;1.03;;;8.50;99.90;;;;;;7391282;19;20615;-75
2022/11/23 02:34:10;;;;;;;2.17;1.07;;;8.50;99.90;;;;;;7390397;19;20234;-74
2022/11/23 02:36:39;;;;;;;4.37;1.10;;;8.40;99.90;;;;;;7389946;19;20131;-74
2022/11/23 02:39:37;;;;;;;4.73;1.20;;;8.40;99.90;;;;;;7390637;19;20595;-74
2022/11/23 02:42:04;;;;;;;2.83;1.30;;;7.90;99.90;;;;;;7389821;19;20134;-74
2022/11/23 02:44:56;;;;;;;2.33;1.37;;;7.80;99.90;;;;;;7389744;19;20146;-74
2022/11/23 02:47:22;;;;;;;2.90;1.33;;;7.90;99.90;;;;;;7387913;19;20870;-74
2022/11/23 02:49:48;;;;;;;2.27;1.67;;;8.00;99.90;;;;;;7387484;19;20628;-73
2022/11/23 02:52:15;;;;;;;2.80;1.43;;;8.10;99.90;;;;;;7387913;19;20138;-74
2022/11/23 02:54:41;;;;;;;3.63;1.30;;;8.10;99.90;;;;;;7385882;19;20174;-75
2022/11/23 02:57:07;;;;;;;7.80;1.60;;;8.00;99.90;;;;;;7389846;19;20146;-74
2022/11/23 02:59:33;;;;;;;2.33;1.07;;;8.10;99.90;;;;;;7390096;19;20146;-75
2022/11/23 03:02:00;;;;;;;2.40;1.00;;;8.00;99.90;;;;;;7389757;19;20131;-73
2022/11/23 03:04:26;;;;;;;3.60;1.20;;;8.30;99.90;;;;;;7390738;19;20146;-75
2022/11/23 03:06:52;;;;;;;5.43;1.57;;;7.80;99.90;;;;;;7390393;19;20153;-73
2022/11/23 03:09:18;;;;;;;2.77;1.27;;;7.80;99.90;;;;;;7392069;19;20135;-74
2022/11/23 03:11:43;;;;;;;4.03;1.27;;;8.00;99.90;;;;;;7390213;19;20147;-74
2022/11/23 03:14:09;;;;;;;3.97;1.40;;;8.10;99.90;;;;;;7389011;19;20146;-74
2022/11/23 03:16:35;;;;;;;2.70;1.83;;;8.20;99.90;;;;;;7388459;19;20139;-74
2022/11/23 03:19:01;;;;;;;3.57;1.60;;;8.30;99.90;;;;;;7388340;19;20130;-74
2022/11/23 03:21:27;;;;;;;2.17;1.40;;;8.20;99.90;;;;;;7387243;19;20148;-74
2022/11/23 03:23:54;;;;;;;3.00;1.60;;;8.20;99.90;;;;;;7387085;19;20134;-73
2022/11/23 03:26:20;;;;;;;3.13;1.40;;;8.20;99.90;;;;;;7388087;19;20495;-74
2022/11/23 03:28:45;;;;;;;4.03;1.63;;;7.60;99.90;;;;;;7387016;19;20134;-73
2022/11/23 03:31:11;;;;;;;1.87;1.53;;;7.10;99.90;;;;;;7386579;19;20183;-73
2022/11/23 03:33:37;;;;;;;2.87;1.57;;;7.00;99.90;;;;;;7386524;19;20617;-74
2022/11/23 03:36:03;;;;;;;6.33;1.90;;;7.00;99.90;;;;;;7387889;19;20138;-73
2022/11/23 03:38:29;;;;;;;4.83;1.90;;;7.40;99.90;;;;;;7388120;19;20143;-74
2022/11/23 03:40:55;;;;;;;3.80;1.57;;;7.40;99.90;;;;;;7386893;19;20512;-74
2022/11/23 03:43:20;;;;;;;4.13;1.40;;;7.60;99.90;;;;;;7387072;19;20225;-73
2022/11/23 03:45:46;;;;;;;4.37;1.70;;;7.60;99.90;;;;;;7388358;19;20146;-73
2022/11/23 03:48:13;;;;;;;2.63;1.30;;;7.30;99.90;;;;;;7391757;19;20175;-73
2022/11/23 03:50:39;;;;;;;3.77;1.30;;;7.60;99.90;;;;;;7387914;19;20158;-73
2022/11/23 03:53:05;;;;;;;6.07;1.43;;;7.30;99.90;;;;;;7382314;19;20510;-74
2022/11/23 03:55:32;;;;;;;1.93;1.00;;;7.50;99.90;;;;;;7387260;19;20190;-74
2022/11/23 03:57:58;;;;;;;2.40;1.17;;;7.80;99.90;;;;;;7386560;19;20568;-74
2022/11/23 04:00:28;;;;;;;2.40;1.00;;;8.00;99.90;;;;;;7390403;19;20138;-74
2022/11/23 04:02:55;;;;;;;3.17;1.30;;;8.20;99.90;;;;;;7397327;19;20145;-74
2022/11/23 04:05:21;;;;;;;2.30;1.37;;;7.90;99.90;;;;;;7390212;19;20591;-74
2022/11/23 04:07:48;;;;;;;2.83;1.23;;;7.90;99.90;;;;;;7396261;19;20146;-75
2022/11/23 04:10:18;;;;;;;1.73;0.90;;;8.20;99.90;;;;;;7395301;19;20146;-74
2022/11/23 04:12:44;;;;;;;2.10;1.07;;;8.20;99.90;;;;;;7394289;19;20464;-74
2022/11/23 04:15:11;;;;;;;3.87;1.40;;;8.30;99.90;;;;;;7397052;19;20176;-75
2022/11/23 04:17:37;;;;;;;3.47;1.40;;;8.40;99.90;;;;;;7392486;19;20139;-75
2022/11/23 04:20:04;;;;;;;3.73;1.20;;;8.40;99.90;;;;;;7394904;19;20612;-74
2022/11/23 04:22:30;;;;;;;2.47;1.17;;;8.40;99.90;;;;;;7395182;19;20668;-74
2022/11/23 04:24:55;;;;;;;4.03;1.40;;;8.50;99.90;;;;;;7393932;19;20158;-75
2022/11/23 04:27:21;;;;;;;3.57;1.10;;;8.50;99.90;;;;;;7392445;19;20159;-73
2022/11/23 04:29:47;;;;;;;1.97;1.00;;;8.50;99.90;;;;;;7392051;19;20146;-74
2022/11/23 04:32:13;;;;;;;2.73;1.20;;;8.60;99.90;;;;;;7392055;19;20595;-74
2022/11/23 04:34:40;;;;;;;3.10;0.90;;;8.50;99.90;;;;;;7391043;19;20154;-74
2022/11/23 04:37:06;;;;;;;1.40;0.97;;;8.60;99.90;;;;;;7392689;19;20142;-75
2022/11/23 04:39:31;;;;;;;1.30;0.80;;;8.60;99.90;;;;;;7393133;19;20167;-75
2022/11/23 04:41:57;;;;;;;3.73;1.13;;;8.40;99.90;;;;;;7393566;19;20134;-75
2022/11/23 04:44:23;;;;;;;2.73;0.93;;;8.40;99.90;;;;;;7392786;19;20233;-75
2022/11/23 04:46:49;;;;;;;2.47;1.00;;;8.20;99.90;;;;;;7393848;19;20149;-75
2022/11/23 04:49:15;;;;;;;2.57;1.00;;;8.30;99.90;;;;;;7394631;19;20163;-74
2022/11/23 04:51:44;;;;;;;2.50;1.33;;;8.40;99.90;;;;;;7395215;19;20150;-75
2022/11/23 04:54:10;;;;;;;2.33;1.27;;;8.60;99.90;;;;;;7395105;19;20142;-74
2022/11/23 04:56:36;;;;;;;2.50;0.93;;;8.50;99.90;;;;;;7392544;19;20545;-74
2022/11/23 04:59:02;;;;;;;2.70;1.03;;;8.60;99.90;;;;;;7394268;19;20130;-74
2022/11/23 05:01:27;;;;;;;2.07;1.03;;;8.40;99.90;;;;;;7394509;19;20138;-74
2022/11/23 05:03:53;;;;;;;2.63;1.10;;;8.00;99.90;;;;;;7392057;19;20676;-74
2022/11/23 05:06:19;;;;;;;3.00;1.40;;;7.50;99.90;;;;;;7392898;19;20149;-74
2022/11/23 05:08:44;;;;;;;2.27;1.30;;;7.40;99.90;;;;;;7393413;19;20134;-74
2022/11/23 05:11:10;;;;;;;3.77;1.50;;;7.50;99.90;;;;;;7391099;19;20157;-74
2022/11/23 05:13:36;;;;;;;3.67;1.03;;;7.20;99.90;;;;;;7391963;19;20555;-74
2022/11/23 05:16:02;;;;;;;1.57;0.93;;;7.20;99.90;;;;;;7391789;19;20146;-74
2022/11/23 05:18:27;;;;;;;1.37;0.83;;;7.40;99.90;;;;;;7392677;19;20137;-74
2022/11/23 05:20:53;;;;;;;4.20;1.03;;;7.30;99.90;;;;;;7392821;19;20147;-75
2022/11/23 05:23:19;;;;;;;2.23;1.00;;;7.50;99.90;;;;;;7390272;19;20270;-73
2022/11/23 05:25:45;;;;;;;1.33;0.97;;;7.40;99.90;;;;;;7389845;19;20143;-73
2022/11/23 05:28:17;;;;;;;2.03;1.00;;;7.50;99.90;;;;;;7391873;19;20149;-74
2022/11/23 05:30:43;;;;;;;1.60;0.90;;;7.90;99.90;;;;;;7392147;19;20154;-72
2022/11/23 05:33:12;;;;;;;5.27;1.23;;;7.90;99.90;;;;;;7389659;19;20603;-76
2022/11/23 05:35:38;;;;;;;2.47;1.10;;;7.90;99.90;;;;;;7394204;19;20446;-74
2022/11/23 05:38:04;;;;;;;3.97;1.57;;;7.60;99.90;;;;;;7395744;19;20135;-74
2022/11/23 05:40:30;;;;;;;5.50;1.87;;;7.90;99.90;;;;;;7391030;19;20149;-74
2022/11/23 05:42:58;;;;;;;2.90;1.67;;;8.10;99.90;;;;;;7392582;19;20146;-74
2022/11/23 05:45:25;;;;;;;3.90;1.20;;;8.20;99.90;;;;;;7391645;19;20608;-74
2022/11/23 05:47:52;;;;;;;3.37;1.03;;;8.30;99.90;;;;;;7394311;19;20480;-74
2022/11/23 05:50:21;;;;;;;4.37;1.90;;;8.10;99.90;;;;;;7392922;19;20155;-74
2022/11/23 05:52:47;;;;;;;3.53;1.60;;;8.20;99.90;;;;;;7389066;19;20509;-73
2022/11/23 05:55:14;;;;;;;1.70;1.20;;;8.20;99.90;;;;;;7390964;19;20143;-75
2022/11/23 05:57:41;;;;;;;1.83;1.03;;;8.30;99.90;;;;;;7389533;19;20171;-75
2022/11/23 06:00:11;;;;;;;2.50;1.00;;;8.20;99.90;;;;;;7390780;19;20150;-75
2022/11/23 06:02:37;;;;;;;5.13;1.43;;;8.30;99.90;;;;;;7392510;19;20460;-74
2022/11/23 06:05:03;;;;;;;4.77;1.50;;;8.30;99.90;;;;;;7389199;19;20164;-74
2022/11/23 06:07:34;;;;;;;2.43;1.27;;;8.40;99.90;;;;;;7391015;19;20163;-73
2022/11/23 06:10:00;;;;;;;2.30;1.30;;;8.00;99.90;;;;;;7394726;19;20131;-74
2022/11/23 06:12:27;;;;;;;3.47;1.80;;;8.10;99.90;;;;;;7393094;19;20143;-74
2022/11/23 06:14:53;;;;;;;2.13;1.10;;;8.30;99.90;;;;;;7391716;19;20812;-75
2022/11/23 06:17:24;;;;;;;5.07;1.13;;;8.50;99.90;;;;;;7391528;19;20131;-74
2022/11/23 06:19:50;;;;;;;4.97;1.30;;;8.60;99.90;;;;;;7390283;19;20616;-74
2022/11/23 06:22:16;;;;;;;1.57;1.00;;;8.60;99.90;;;;;;7389445;19;20142;-73
2022/11/23 06:24:42;;;;;;;4.23;1.43;;;8.60;99.90;;;;;;7388266;19;20210;-74
2022/11/23 06:27:08;;;;;;;5.57;1.80;;;8.60;99.90;;;;;;7389346;19;20238;-74
2022/11/23 06:29:34;;;;;;;5.17;1.50;;;8.70;99.90;;;;;;7388959;19;20555;-74
2022/11/23 06:32:00;;;;;;;4.77;1.40;;;8.70;99.90;;;;;;7388424;19;20131;-76
2022/11/23 06:34:25;;;;;;;3.50;1.00;;;8.60;99.90;;;;;;7390402;19;20206;-75
2022/11/23 06:36:51;;;;;;;5.13;1.23;;;8.50;99.90;;;;;;7389402;19;20545;-77
2022/11/23 06:39:17;;;;;;;5.77;1.20;;;8.60;99.90;;;;;;7390794;19;20159;-75
2022/11/23 06:41:43;;;;;;;3.23;0.97;;;8.30;99.90;;;;;;7387245;19;20131;-77
2022/11/23 06:44:09;;;;;;;4.57;1.20;;;8.50;99.90;;;;;;7387759;19;20135;-77
2022/11/23 06:46:34;;;;;;;2.93;1.13;;;8.40;99.90;;;;;;7391186;19;20621;-75
2022/11/23 06:49:00;;;;;;;5.03;1.20;;;7.80;99.90;;;;;;7390873;19;20123;-77
2022/11/23 06:51:26;;;;;;;6.93;1.30;;;7.90;99.90;;;;;;7390397;19;20525;-77
2022/11/23 06:53:52;;;;;;;4.30;1.33;;;7.80;99.90;;;;;;7388531;19;20621;-76
2022/11/23 06:56:17;;;;;;;3.20;1.27;;;7.80;99.90;;;;;;7388388;19;20157;-78
2022/11/23 06:58:43;;;;;;;3.90;1.20;;;7.80;99.90;;;;;;7383295;19;20185;-75
2022/11/23 07:01:09;;;;;;;4.37;1.43;;;7.60;99.90;;;;;;7387653;19;20138;-75
2022/11/23 07:03:36;;;;;;;3.23;1.07;;;7.80;99.90;;;;;;7388384;19;20522;-76
2022/11/23 07:06:06;;;;;;;8.17;1.43;;;7.70;99.90;;;;;;7389087;19;20219;-75
2022/11/23 07:08:32;;;;;;;3.17;1.40;;;8.00;99.90;;;;;;7390341;19;20138;-75
2022/11/23 07:11:02;;;;;;;6.07;1.20;;;8.10;99.90;;;;;;7392138;19;20152;-76
2022/11/23 07:13:28;;;;;;;5.07;1.40;;;7.90;99.90;;;;;;7389820;19;20155;-75
2022/11/23 07:15:54;;;;;;;3.10;0.97;;;7.20;99.90;;;;;;7392189;19;20146;-74
2022/11/23 07:18:22;;;;;;;3.40;1.20;;;7.10;99.90;;;;;;7388612;19;20157;-75
2022/11/23 07:20:48;;;;;;;5.10;1.50;;;7.30;99.90;;;;;;7391678;19;20142;-74
2022/11/23 07:23:13;;;;;;;2.63;1.33;;;7.50;99.90;;;;;;7391581;19;20134;-75
2022/11/23 07:25:39;;;;;;;5.13;1.70;;;7.40;99.90;;;;;;7389373;19;20170;-75
2022/11/23 07:28:10;;;;;;;4.27;1.50;;;7.40;99.90;;;;;;7389307;19;20178;-76
2022/11/23 07:30:37;;;;;;;3.63;2.10;;;7.40;99.90;;;;;;7389791;19;20143;-75
2022/11/23 07:33:05;;;;;;;3.27;1.93;;;7.80;99.90;;;;;;7390785;19;20149;-72
2022/11/23 07:35:31;;;;;;;5.53;2.37;;;7.60;99.90;;;;;;7390417;19;20577;-73
2022/11/23 07:37:58;;;;;;;3.07;1.57;;;7.80;99.90;;;;;;7387181;19;20127;-75
2022/11/23 07:40:24;;;;;;;2.97;1.83;;;8.10;99.90;;;;;;7390849;19;20155;-74
2022/11/23 07:42:50;;;;;;;3.67;1.50;;;8.00;99.90;;;;;;7390771;19;20525;-74
2022/11/23 07:45:15;;;;;;;2.40;1.70;;;8.00;99.90;;;;;;7388669;19;20238;-74
2022/11/23 07:47:41;;;;;;;3.63;1.70;;;7.70;99.90;;;;;;7388711;19;20135;-73
2022/11/23 07:50:09;;;;;;;4.03;1.80;;;7.90;99.90;;;;;;7388569;19;20617;-74
2022/11/23 07:52:37;;;;;;;3.17;2.43;;;7.80;99.90;;;;;;7386620;19;20490;-74
2022/11/23 07:55:03;;;;;;;4.87;1.90;;;7.50;99.90;;;;;;7386257;19;20158;-74
2022/11/23 07:57:29;;;;;;;7.47;1.93;;;7.60;99.90;;;;;;7387828;19;20677;-74
2022/11/23 07:59:55;;;;;;;3.83;1.80;;;7.30;99.90;;;;;;7388058;19;20146;-74
2022/11/23 08:02:23;;;;;;;7.80;2.73;;;7.40;99.90;;;;;;7388428;19;20131;-74
2022/11/23 08:04:49;;;;;;;3.73;1.87;;;7.70;99.90;;;;;;7392285;19;20137;-75
2022/11/23 08:07:17;;;;;;;5.43;1.73;;;7.80;99.90;;;;;;7388047;19;20127;-73
2022/11/23 08:09:45;;;;;;;3.60;1.47;;;8.10;99.90;;;;;;7391128;19;20146;-74
2022/11/23 08:12:11;;;;;;;4.60;1.70;;;7.90;99.90;;;;;;7392529;19;20135;-74
2022/11/23 08:14:39;;;;;;;5.03;1.77;;;8.00;99.90;;;;;;7389486;19;20155;-73
2022/11/23 08:17:05;;;;;;;4.20;1.87;;;8.20;99.90;;;;;;7388159;19;20632;-74
2022/11/23 08:19:34;;;;;;;6.10;2.20;;;8.30;99.90;;;;;;7389681;19;20179;-73
2022/11/23 08:22:00;;;;;;;5.60;2.10;;;8.40;99.90;;;;;;7388397;19;20135;-74
2022/11/23 08:24:25;;;;;;;5.43;2.57;;;8.30;99.90;;;;;;7363194;19;20175;-73
2022/11/23 08:26:51;;;;;;;5.93;2.00;;;8.40;99.90;;;;;;7387977;19;20135;-73
2022/11/23 08:29:17;;;;;;;7.30;2.27;;;8.40;99.90;;;;;;7388493;19;20252;-74
2022/11/23 08:31:43;;;;;;;3.17;1.73;;;8.40;99.90;;;;;;7386435;19;20151;-73
2022/11/23 08:34:08;;;;;;;3.07;1.50;;;8.50;99.90;;;;;;7383171;19;20174;-75
2022/11/23 08:36:35;;;;;;;5.37;1.53;;;8.30;99.90;;;;;;7384704;19;20251;-75
2022/11/23 08:39:01;;;;;;;5.77;2.20;;;7.70;99.90;;;;;;7383464;19;20139;-74
2022/11/23 08:41:27;;;;;;;5.30;1.60;;;7.90;99.90;;;;;;7384449;19;20169;-74
2022/11/23 08:43:53;;;;;;;8.70;2.27;;;8.20;99.90;;;;;;7386731;19;20138;-74
2022/11/23 08:46:18;;;;;;;7.97;3.00;;;8.40;99.90;;;;;;7385389;19;20134;-75
2022/11/23 08:48:44;;;;;;;7.33;3.77;;;8.20;99.90;;;;;;7388012;19;20145;-75
2022/11/23 08:51:11;;;;;;;5.40;3.00;;;8.10;99.90;;;;;;7392601;19;20596;-76
2022/11/23 08:53:37;;;;;;;8.57;2.63;;;8.30;99.90;;;;;;7394141;19;20154;-74
2022/11/23 08:56:21;;;;;;;6.03;2.77;;;8.40;99.90;;;;;;7392470;19;20153;-75
2022/11/23 08:58:48;;;;;;;7.50;2.40;;;8.30;99.90;;;;;;7388545;19;20154;-74
2022/11/23 09:01:15;;;;;;;8.03;2.30;;;7.80;99.90;;;;;;7390515;19;20135;-73
2022/11/23 09:03:42;;;;;;;4.77;2.10;;;7.90;99.90;;;;;;7386275;19;20174;-73
2022/11/23 09:06:08;;;;;;;5.83;2.23;;;8.10;99.90;;;;;;7391413;19;20157;-75
2022/11/23 09:08:35;;;;;;;6.03;2.30;;;8.30;99.90;;;;;;7391268;19;20147;-74
2022/11/23 09:11:02;;;;;;;4.50;2.27;;;8.50;99.90;;;;;;7391333;19;20131;-75
2022/11/23 09:13:28;;;;;;;4.63;2.40;;;8.70;99.90;;;;;;7393542;19;20138;-73
2022/11/23 09:15:59;;;;;;;3.20;2.00;;;8.40;99.90;;;;;;7391977;19;20149;-75
2022/11/23 09:18:27;;;;;;;7.67;2.50;;;8.60;99.90;;;;;;7395067;19;21863;-74
2022/11/23 09:20:55;;;;;;;5.30;2.97;;;8.70;99.90;;;;;;7394708;19;20163;-75
2022/11/23 09:23:21;;;;;;;8.40;2.80;;;8.70;99.90;;;;;;7396507;19;20138;-74
2022/11/23 09:25:48;;;;;;;6.57;2.63;;;8.80;99.90;;;;;;7391924;19;20175;-74
2022/11/23 09:28:16;;;;;;;6.07;2.33;;;8.80;99.90;;;;;;7394659;19;20158;-75
2022/11/23 09:30:43;;;;;;;7.10;2.30;;;8.80;99.90;;;;;;7399029;19;20656;-75
2022/11/23 09:33:10;;;;;;;6.03;2.50;;;8.70;99.90;;;;;;7398346;19;20154;-74
2022/11/23 09:35:35;;;;;;;4.30;2.23;;;8.70;99.90;;;;;;7396796;19;20138;-75
2022/11/23 09:38:01;;;;;;;6.07;2.70;;;8.70;99.90;;;;;;7391529;19;20142;-74
2022/11/23 09:40:39;;;;;;;8.50;3.73;;;8.60;99.90;;;;;;7392251;19;20139;-74
2022/11/23 09:43:30;;;;;;;6.13;2.83;;;8.80;99.90;;;;;;7394685;19;20149;-74
2022/11/23 09:46:02;;;;;;;5.27;1.90;;;8.60;99.90;;;;;;7391069;19;20178;-74
2022/11/23 09:48:36;;;;;;;6.90;2.27;;;8.20;99.90;;;;;;7395656;19;20147;-73
2022/11/23 09:51:14;;;;;;;5.97;1.97;;;8.20;99.90;;;;;;7392842;19;20158;-75
2022/11/23 09:53:44;;;;;;;5.83;2.43;;;8.40;99.90;;;;;;7404534;19;20493;-75
2022/11/23 09:56:24;;;;;;;5.47;2.30;;;8.60;99.90;;;;;;7393544;19;20134;-74
2022/11/23 09:58:57;;;;;;;6.20;2.30;;;8.50;99.90;;;;;;7387133;19;20212;-74
2022/11/23 10:01:24;;;;;;;9.53;2.00;;;8.80;99.90;;;;;;7392634;19;20153;-74
2022/11/23 10:03:50;;;;;;;3.20;1.37;;;9.00;99.90;;;;;;7391604;19;20584;-74
2022/11/23 10:06:18;;;;;;;3.73;2.00;;;9.20;99.90;;;;;;7390962;19;20206;-75
2022/11/23 10:09:02;;;;;;;3.73;1.73;;;9.40;99.90;;;;;;7391931;19;20202;-76
2022/11/23 10:11:35;;;;;;;5.07;2.07;;;9.50;99.90;;;;;;7391138;19;20202;-75
2022/11/23 10:14:03;;;;;;;6.43;2.20;;;9.30;99.90;;;;;;7389299;19;20317;-75
2022/11/23 10:16:56;;;;;;;3.77;1.70;;;9.40;99.90;;;;;;7392789;19;20166;-74
2022/11/23 10:19:53;;;;;;;5.57;2.17;;;9.10;99.90;;;;;;7389222;19;20503;-75
2022/11/23 10:22:30;;;;;;;4.27;1.90;;;9.00;99.90;;;;;;7389988;19;20134;-74
2022/11/23 10:24:58;;;;;;;8.57;3.00;;;9.40;99.90;;;;;;7390436;19;20206;-74
2022/11/23 10:27:24;;;;;;;5.90;1.87;;;9.40;99.90;;;;;;7392084;19;20188;-74
2022/11/23 10:29:55;;;;;;;2.83;1.43;;;9.30;99.90;;;;;;7395354;19;20551;-75
2022/11/23 10:32:31;;;;;;;9.73;5.40;;;9.30;99.90;;;;;;7388990;19;20165;-73
2022/11/23 10:35:12;;;;;;;3.90;2.70;;;9.40;99.90;;;;;;7388528;19;20138;-76
2022/11/23 10:37:39;;;;;;;3.43;1.50;;;9.60;99.90;;;;;;7388359;19;20395;-74
2022/11/23 10:40:27;;;;;;;3.97;1.60;;;9.80;99.90;;;;;;7389513;19;20448;-74
2022/11/23 10:42:58;;;;;;;3.10;1.50;;;9.80;99.90;;;;;;7389111;19;20134;-74
2022/11/23 10:45:26;;;;;;;4.70;1.53;;;10.00;99.90;;;;;;7388609;19;20165;-75
2022/11/23 10:47:59;;;;;;;1.80;0.98;;;10.10;99.90;;;;;;7389309;19;20391;-75
2022/11/23 10:50:36;;;;;;;3.03;1.30;;;10.00;99.90;;;;;;7388517;19;20146;-76
2022/11/23 10:53:05;;;;;;;1.73;1.07;;;10.20;99.90;;;;;;7376016;19;20142;-75
2022/11/23 10:55:54;;;;;;;3.53;1.30;;;10.10;99.90;;;;;;7388924;19;20142;-75
2022/11/23 10:58:27;;;;;;;3.70;1.30;;;10.20;99.90;;;;;;7388811;19;20178;-75
2022/11/23 11:01:11;;;;;;;2.80;1.63;;;10.20;99.90;;;;;;7391023;19;20153;-76
2022/11/23 11:03:37;;;;;;;5.23;2.07;;;10.20;99.90;;;;;;7389173;19;20138;-75
2022/11/23 11:06:04;;;;;;;3.53;1.60;;;10.40;99.90;;;;;;7386758;19;20620;-74
2022/11/23 11:08:35;;;;;;;5.10;1.50;;;10.30;99.90;;;;;;7384639;19;20151;-74
2022/11/23 11:11:19;;;;;;;7.77;3.20;;;10.50;99.90;;;;;;7386409;19;20162;-75
2022/11/23 11:13:47;;;;;;;4.43;2.00;;;10.60;99.90;;;;;;7388742;19;20504;-77
2022/11/23 11:16:15;;;;;;;3.15;1.40;;;10.70;99.90;;;;;;7387268;19;20408;-75
2022/11/23 11:18:41;;;;;;;3.08;1.70;;;10.80;99.90;;;;;;7391248;19;20390;-76
2022/11/23 11:21:31;;;;;;;2.00;1.60;;;10.90;99.90;;;;;;7388871;19;20205;-73
2022/11/23 11:24:27;;;;;;;4.83;2.23;;;11.00;99.90;;;;;;7390072;19;20143;-80
2022/11/23 11:26:58;;;;;;;3.10;1.70;;;10.90;99.90;;;;;;7387569;19;20146;-76
2022/11/23 11:29:45;;;;;;;3.00;1.40;;;11.00;99.90;;;;;;7387816;19;20146;-78
2022/11/23 11:32:40;;;;;;;4.50;1.57;;;10.90;99.90;;;;;;7385651;19;20146;-75
2022/11/23 11:35:16;;;;;;;4.20;1.70;;;11.10;99.90;;;;;;7385481;19;20647;-77
2022/11/23 11:37:50;;;;;;;2.90;1.30;;;11.00;99.90;;;;;;7385594;19;20514;-78
2022/11/23 11:40:41;;;;;;;3.50;1.30;;;11.10;99.90;;;;;;7387905;19;20516;-78
2022/11/23 11:43:20;;;;;;;4.73;1.37;;;11.10;99.90;;;;;;7388529;19;20135;-78
2022/11/23 11:45:56;;;;;;;4.77;1.47;;;11.20;99.90;;;;;;7394981;19;20134;-75
2022/11/23 11:48:48;;;;;;;7.13;1.60;;;11.30;99.90;;;;;;7389718;19;20130;-76
2022/11/23 11:51:22;;;;;;;4.37;1.30;;;11.30;99.90;;;;;;7387081;19;20237;-77
2022/11/23 11:54:04;;;;;;;5.93;1.40;;;11.40;99.90;;;;;;7386141;19;20491;-78
2022/11/23 11:56:37;;;;;;;3.37;1.33;;;11.20;99.90;;;;;;7387485;19;20157;-78
2022/11/23 11:59:15;;;;;;;3.95;1.83;;;11.50;99.90;;;;;;7392618;19;20400;-74
2022/11/23 12:02:09;;;;;;;4.07;1.58;;;11.40;99.90;;;;;;7394407;19;20428;-75
2022/11/23 12:04:42;;;;;;;4.70;2.20;;;11.40;99.90;;;;;;7385671;19;20407;-76
2022/11/23 12:07:17;;;;;;;4.33;2.10;;;11.40;99.90;;;;;;7388914;19;20404;-76
2022/11/23 12:09:48;;;;;;;4.33;2.07;;;11.40;99.90;;;;;;7388748;19;20142;-76
2022/11/23 12:12:16;;;;;;;3.17;1.63;;;11.60;99.90;;;;;;7386007;19;20202;-77
2022/11/23 12:14:44;;;;;;;6.37;3.40;;;11.70;99.90;;;;;;7389036;19;20471;-77
2022/11/23 12:17:25;;;;;;;4.93;1.73;;;11.80;99.90;;;;;;7388474;19;20130;-77
2022/11/23 12:20:05;;;;;;;2.50;1.10;;;11.80;99.90;;;;;;7386150;19;20786;-76
2022/11/23 12:23:13;;;;;;;3.37;1.90;;;11.70;99.90;;;;;;7391850;19;20150;-77
2022/11/23 12:26:05;;;;;;;1.30;1.00;;;11.80;99.90;;;;;;7389882;19;20154;-76
2022/11/23 12:28:48;;;;;;;2.63;1.00;;;11.80;99.90;;;;;;7393052;19;20138;-76
2022/11/23 12:31:14;;;;;;;3.37;1.37;;;11.70;99.90;;;;;;7403327;19;20146;-76
2022/11/23 12:33:49;;;;;;;5.80;2.07;;;11.70;99.90;;;;;;7393586;19;20482;-76
2022/11/23 12:36:40;;;;;;;2.87;1.20;;;11.60;99.90;;;;;;7392564;19;20542;-76
2022/11/23 12:39:20;;;;;;;2.00;0.70;;;11.80;99.90;;;;;;7392409;19;20134;-77
2022/11/23 12:42:01;;;;;;;1.63;0.70;;;11.80;99.90;;;;;;7393410;19;20143;-75
2022/11/23 12:44:41;;;;;;;3.87;1.17;;;11.60;99.90;;;;;;7393611;19;20163;-77
2022/11/23 12:47:29;;;;;;;0.90;0.80;;;11.70;99.90;;;;;;7392414;19;20130;-77
2022/11/23 12:50:23;;;;;;;1.57;0.77;;;11.80;99.90;;;;;;7395111;19;20135;-77
2022/11/23 12:53:11;;;;;;;1.27;0.83;;;11.90;99.90;;;;;;7395453;19;20135;-79
2022/11/23 12:55:55;;;;;;;1.47;0.60;;;11.70;99.90;;;;;;7393700;19;20127;-76
2022/11/23 12:58:24;;;;;;;2.00;0.93;;;11.70;99.90;;;;;;7389563;19;20156;-75
2022/11/23 13:00:58;;;;;;;2.00;0.90;;;11.80;99.90;;;;;;7395667;19;20163;-76
2022/11/23 13:03:55;;;;;;;2.27;1.10;;;11.80;99.90;;;;;;7393138;19;20606;-76
2022/11/23 13:06:59;;;;;;;3.97;2.33;;;12.20;99.90;;;;;;7395306;19;20493;-76
2022/11/23 13:09:40;;;;;;;1.40;0.98;;;12.40;99.90;;;;;;7392298;19;20154;-76